Logo AVAMET
Benvolgut visitant, si us plau, ingressa Recuperar contrasenya
AVAMET paisatges

Inforatge Riba-roja de Túria Poble

Dades diàries. Acumulats / Últims 30 dies disponibles

Data Temperatura (°C) Humitat rel. (%) Pressió rel. (hPa) Vent (km/h) Precipitació
Mínima Mitjana Màxima Amplitud
tèrmica
Mínima Mitjana Màxima Mínima Mitjana Màxima Predom. Mitjana Ràfega
màxima
Total
(mm)
Índex-n
Mínima Mitjana Màxima Mínima Mitjana Màxima n
0 a 1
P0 max
mm 5'
Dades mensuals acumulades fins l'últim dia disponible
07/2020 19,9 21,4 23,3 25,7 26,8 30,2 33,3 13,4 33 70 93 1.009 1.016 1.022   6,3 40,2 4,0
Dades anuals acumulades fins l'últim dia disponible
2020 0,8 12,5 23,3 16,9 9,6 22,1 33,3 32,5 15 69 96 997 1.018 1.034   5,2 85,3 287,0
Últims 30 dies disponibles
13-07-2020 20,6     24,9     29,3 8,7 54 73 91 1.016 1.018 1.019 E 6,3 30,6 0,6
12-07-2020 21,4     24,1     29,3 7,9 56 80 93 1.015 1.018 1.020 E 4,8 35,4 3,4 0,20
11-07-2020 21,0     25,2     28,5 7,5 52 74 90 1.015 1.017 1.018 E 7,6 35,4 0,0
10-07-2020 21,2     26,2     30,7 9,5 41 64 87 1.013 1.014 1.016 E 6,1 37,0 0,0
09-07-2020 22,1     26,1     31,6 9,5 42 67 84 1.014 1.016 1.017 E 6,1 32,2 0,0
08-07-2020 21,5     25,4     29,3 7,8 57 72 86 1.013 1.016 1.018 E 5,1 35,4 0,0
07-07-2020 21,9     26,3     30,2 8,3 52 63 80 1.014 1.015 1.016 E 7,7 40,2 0,0
06-07-2020 21,5     27,5     32,8 11,3 33 50 76 1.014 1.015 1.018 E 6,0 33,8 0,0
05-07-2020 21,0     26,2     31,3 10,3 39 68 87 1.017 1.019 1.022 E 5,8 32,2 0,0
04-07-2020 22,0     25,3     29,0 7,0 62 76 88 1.019 1.020 1.022 E 6,4 35,4 0,0
03-07-2020 23,3     24,7     26,8 3,5 59 74 88 1.015 1.018 1.020 E 8,4 33,8 0,0
02-07-2020 21,4     26,1     30,6 9,2 57 74 90 1.011 1.013 1.015 E 6,1 35,4 0,0
01-07-2020 19,9     26,6     33,3 13,4 42 70 88 1.009 1.011 1.012 E 5,5 32,2 0,0
30-06-2020 21,0     25,2     29,9 8,9 46 73 90 1.011 1.014 1.016 S 5,2 32,2 0,0
29-06-2020 20,2     25,2     30,3 10,1 49 72 90 1.014 1.016 1.017 E 6,1 33,8 0,0
28-06-2020 19,7     24,7     29,3 9,6 53 71 86 1.015 1.016 1.018 E 5,6 30,6 0,0
27-06-2020 20,3     25,3     32,0 11,7 32 63 79 1.014 1.014 1.016 E 6,6 35,4 0,0
26-06-2020 19,2     25,0     30,2 11,0 35 59 78 1.012 1.014 1.016 E 6,1 32,2 0,0
25-06-2020 18,7     25,1     30,1 11,4 35 58 83 1.014 1.016 1.018 E 6,3 32,2 0,0
24-06-2020 19,6     24,3     29,8 10,2 44 64 78 1.014 1.017 1.018 WNW 5,0 43,5 0,0
23-06-2020 19,4     24,4     29,9 10,5 45 66 82 1.016 1.018 1.020 E 6,3 32,2 0,0
22-06-2020 19,8     25,3     30,3 10,5 39 61 81 1.018 1.020 1.022 E 6,9 32,2 0,0
21-06-2020 18,6     24,0     28,6 10,0 55 73 90 1.019 1.020 1.022 E 5,0 29,0 0,0
20-06-2020 17,9     23,3     27,9 10,0 57 74 89 1.018 1.020 1.021 E 5,6 35,4 0,0
19-06-2020 19,9     22,3     26,3 6,4 63 77 87 1.016 1.018 1.020 E 6,4 35,4 0,0
18-06-2020 20,0     21,8     25,0 5,0 62 72 86 1.013 1.014 1.016 E 7,7 37,0 0,0
17-06-2020 17,3     21,1     24,7 7,4 58 73 87 1.014 1.015 1.017 E 8,2 37,0 0,0
16-06-2020 19,0     21,7     25,7 6,7 58 71 83 1.015 1.016 1.018 E 7,2 40,2 0,0
15-06-2020 18,1     22,6     27,6 9,5 37 61 82 1.017 1.018 1.019 E 7,1 37,0 0,0
14-06-2020 17,4     22,8     27,1 9,7 32 49 70 1.015 1.016 1.018 E 7,1 37,0 0,0
Últims 13 mesos disponibles
06/2020 13,9 18,1 21,0 23,0 22,6 28,4 32,4 18,5 35 64 81 1.004 1.014 1.020 E 6,4 51,5 22,8
05/2020 10,9 16,0 19,7 20,8 19,7 26,0 33,0 22,1 46 63 80 1.004 1.016 1.027 E 5,8 49,9 23,4
04/2020 8,2 12,0 17,8 15,6 14,9 20,3 26,1 17,9 41 74 94 1.005 1.015 1.026 E 4,7 43,5 65,6
03/2020 5,1 9,9 16,8 13,7 11,1 18,1 25,5 20,4 41 69 92 1.006 1.017 1.026 E 6,6 85,3 72,6
02/2020 5,4 8,9 13,7 14,1 13,1 20,9 26,8 21,4 39 69 92 1.013 1.025 1.032 WNW 3,2 45,1 3,8
01/2020 0,8 6,4 15,2 10,5 9,6 15,8 21,9 21,1 55 73 92 1.016 1.025 1.032 WNW 4,1 69,2 94,8
12/2019 4,8 9,6 16,2 13,4 11,3 17,9 24,8 20,0 50 68 96 1.001 1.018 1.032 WNW 5,1 85,3 55,6
11/2019 4,4 11,5 20,3 15,2 13,4 19,3 28,7 24,3 43 53 81 997 1.010 1.017 W 8,3 61,2 3,4
10/2019 10,2 15,4 20,1 19,8 15,3 25,2 34,6 24,4 33 62 84 1.007 1.016 1.021 WNW 3,9 43,5 21,0
09/2019 15,2 19,4 22,8 23,2 20,1 28,0 34,7 19,5 41 71 85 1.010 1.017 1.025 S 5,0 56,3 97,2
08/2019 17,2 21,2 26,3 25,9 25,9 31,5 41,2 24,0 40 65 81 1.010 1.016 1.020 S 5,7 53,7 30,2
07/2019 20,3 21,5 24,1 26,5 27,1 31,9 37,4 17,1 43 61 77 1.005 1.014 1.021 SSE 6,2 45,0 10,8
06/2019 11,9 17,2 21,4 22,6 21,8 27,9 37,7 25,8 35 59 78 1.008 1.015 1.021 SSE 6,5 55,6 0,0
Tots els anys disponibles
2019 1,8 13,4 26,3 18,0 11,3 23,3 41,2 39,4 29 62 96 994 1.016 1.033 S 5,7 85,3 364,0
2018 1,9 13,6 26,2 17,8 8,0 22,7 36,8 34,9 35 64 93 992 1.015 1.035 OSO 5,6 72,4 557,8
2017 2,1 14,2 24,2 18,9 10,9 24,1 36,6 34,5 27 64 92 996 1.019 1.035 S 3,1 85,4 223,2
Temperatura (°C)
Humitat relativa (%)
Velocitat del vent i ràfega màxima (km/h)
Direcció del vent (°)
Pressió (hPa)
Precipitació (mm)
Nota sobre les dades: s'avisa a l'usuari de la provisionalitat i no oficialitat d'aquestes dades
Logo AVAMET blanc
Web allotjada a Sollutia
Llicència de Creative CommonsLa web d'AVAMET i els seus continguts estan subjectes a una llicència de
Reconeixement - No Comercial - Compartir igual
Últimes estacions: Vilamarxant - La Pedrera (Soci), Càlig (Ajuntament Soci), Quesa - Hotel La Rocha (Soci), Agres - Les Eres (Soci), la Vilavella - Ptda Forns (Soci), Miramar - Platja (Inforatge), San Fulgencio - Centre & San Fulgencio - Urb. La Marina (MeteOrihuela), Ontinyent - els Gínjols (Soci), Orba (Aj. Soci) - - -